sensor_id;sensor_type;location;lat;lon;timestamp;P1;durP1;ratioP1;P2;durP2;ratioP2
49910;SDS011;35803;53.096;5.844;2023-04-01T00:00:45;7.72;;;5.00;;
49910;SDS011;35803;53.096;5.844;2023-04-01T00:03:10;9.10;;;4.47;;
49910;SDS011;35803;53.096;5.844;2023-04-01T00:05:36;8.38;;;5.00;;
49910;SDS011;35803;53.096;5.844;2023-04-01T00:08:02;8.60;;;4.82;;
49910;SDS011;35803;53.096;5.844;2023-04-01T00:10:28;8.70;;;4.97;;
49910;SDS011;35803;53.096;5.844;2023-04-01T00:12:53;8.65;;;5.35;;
49910;SDS011;35803;53.096;5.844;2023-04-01T00:15:29;7.18;;;4.70;;
49910;SDS011;35803;53.096;5.844;2023-04-01T00:17:55;7.82;;;4.60;;
49910;SDS011;35803;53.096;5.844;2023-04-01T00:20:21;7.53;;;4.55;;
49910;SDS011;35803;53.096;5.844;2023-04-01T00:22:47;7.95;;;4.90;;
49910;SDS011;35803;53.096;5.844;2023-04-01T00:25:13;8.65;;;4.57;;
49910;SDS011;35803;53.096;5.844;2023-04-01T00:27:39;8.70;;;4.95;;
49910;SDS011;35803;53.096;5.844;2023-04-01T00:30:06;9.68;;;5.20;;
49910;SDS011;35803;53.096;5.844;2023-04-01T00:32:32;9.85;;;5.53;;
49910;SDS011;35803;53.096;5.844;2023-04-01T00:34:58;8.55;;;5.07;;
49910;SDS011;35803;53.096;5.844;2023-04-01T00:37:25;8.20;;;5.45;;
49910;SDS011;35803;53.096;5.844;2023-04-01T00:39:50;8.18;;;5.00;;
49910;SDS011;35803;53.096;5.844;2023-04-01T00:42:16;8.77;;;5.05;;
49910;SDS011;35803;53.096;5.844;2023-04-01T00:44:42;8.20;;;4.95;;
49910;SDS011;35803;53.096;5.844;2023-04-01T00:47:07;8.30;;;5.10;;
49910;SDS011;35803;53.096;5.844;2023-04-01T00:49:35;8.57;;;5.32;;
49910;SDS011;35803;53.096;5.844;2023-04-01T00:52:05;8.82;;;5.18;;
49910;SDS011;35803;53.096;5.844;2023-04-01T00:54:32;9.38;;;5.30;;
49910;SDS011;35803;53.096;5.844;2023-04-01T00:57:00;10.13;;;5.47;;
49910;SDS011;35803;53.096;5.844;2023-04-01T00:59:32;9.25;;;5.25;;
49910;SDS011;35803;53.096;5.844;2023-04-01T01:02:00;7.80;;;5.03;;
49910;SDS011;35803;53.096;5.844;2023-04-01T01:04:28;6.43;;;3.70;;
49910;SDS011;35803;53.096;5.844;2023-04-01T01:09:32;2.60;;;1.77;;
49910;SDS011;35803;53.096;5.844;2023-04-01T01:12:21;1.80;;;1.50;;
49910;SDS011;35803;53.096;5.844;2023-04-01T01:15:12;3.67;;;2.05;;
49910;SDS011;35803;53.096;5.844;2023-04-01T01:28:15;10.57;;;4.68;;
49910;SDS011;35803;53.096;5.844;2023-04-01T01:30:54;8.82;;;5.18;;
49910;SDS011;35803;53.096;5.844;2023-04-01T01:36:02;9.55;;;5.53;;
49910;SDS011;35803;53.096;5.844;2023-04-01T01:38:31;10.55;;;5.85;;
49910;SDS011;35803;53.096;5.844;2023-04-01T01:40:58;10.68;;;5.95;;
49910;SDS011;35803;53.096;5.844;2023-04-01T01:43:25;10.45;;;5.78;;
49910;SDS011;35803;53.096;5.844;2023-04-01T01:45:54;9.80;;;5.80;;
49910;SDS011;35803;53.096;5.844;2023-04-01T01:48:20;11.30;;;5.70;;
49910;SDS011;35803;53.096;5.844;2023-04-01T01:50:47;10.35;;;5.45;;
49910;SDS011;35803;53.096;5.844;2023-04-01T01:53:14;12.90;;;6.43;;
49910;SDS011;35803;53.096;5.844;2023-04-01T01:55:40;11.68;;;6.22;;
49910;SDS011;35803;53.096;5.844;2023-04-01T02:00:55;10.73;;;5.28;;
49910;SDS011;35803;53.096;5.844;2023-04-01T02:03:24;9.95;;;5.25;;
49910;SDS011;35803;53.096;5.844;2023-04-01T02:05:50;8.82;;;5.35;;
49910;SDS011;35803;53.096;5.844;2023-04-01T02:08:21;10.00;;;5.38;;
49910;SDS011;35803;53.096;5.844;2023-04-01T02:10:55;10.15;;;6.15;;
49910;SDS011;35803;53.096;5.844;2023-04-01T02:13:31;10.68;;;5.90;;
49910;SDS011;35803;53.096;5.844;2023-04-01T02:16:02;11.70;;;6.05;;
49910;SDS011;35803;53.096;5.844;2023-04-01T02:18:33;10.82;;;6.07;;
49910;SDS011;35803;53.096;5.844;2023-04-01T02:21:00;10.77;;;6.22;;
49910;SDS011;35803;53.096;5.844;2023-04-01T02:23:26;11.00;;;6.00;;
49910;SDS011;35803;53.096;5.844;2023-04-01T02:25:53;11.20;;;6.03;;
49910;SDS011;35803;53.096;5.844;2023-04-01T02:28:19;10.77;;;5.75;;
49910;SDS011;35803;53.096;5.844;2023-04-01T02:30:45;10.27;;;5.75;;
49910;SDS011;35803;53.096;5.844;2023-04-01T02:33:12;12.35;;;6.30;;
49910;SDS011;35803;53.096;5.844;2023-04-01T02:35:37;14.27;;;6.43;;
49910;SDS011;35803;53.096;5.844;2023-04-01T02:38:03;11.63;;;5.97;;
49910;SDS011;35803;53.096;5.844;2023-04-01T02:40:29;11.57;;;5.75;;
49910;SDS011;35803;53.096;5.844;2023-04-01T02:42:54;9.05;;;5.05;;
49910;SDS011;35803;53.096;5.844;2023-04-01T02:45:20;11.52;;;5.38;;
49910;SDS011;35803;53.096;5.844;2023-04-01T02:47:46;9.45;;;5.32;;
49910;SDS011;35803;53.096;5.844;2023-04-01T02:50:11;11.82;;;5.32;;
49910;SDS011;35803;53.096;5.844;2023-04-01T02:52:37;12.15;;;5.60;;
49910;SDS011;35803;53.096;5.844;2023-04-01T02:55:03;12.90;;;6.45;;
49910;SDS011;35803;53.096;5.844;2023-04-01T02:57:29;11.75;;;6.53;;
49910;SDS011;35803;53.096;5.844;2023-04-01T02:59:55;10.45;;;5.60;;
49910;SDS011;35803;53.096;5.844;2023-04-01T03:02:21;13.50;;;6.85;;
49910;SDS011;35803;53.096;5.844;2023-04-01T03:04:46;12.43;;;6.95;;
49910;SDS011;35803;53.096;5.844;2023-04-01T03:07:12;13.90;;;6.70;;
49910;SDS011;35803;53.096;5.844;2023-04-01T03:09:37;14.48;;;6.68;;
49910;SDS011;35803;53.096;5.844;2023-04-01T03:12:03;11.43;;;5.90;;
49910;SDS011;35803;53.096;5.844;2023-04-01T03:14:29;10.25;;;5.95;;
49910;SDS011;35803;53.096;5.844;2023-04-01T03:16:55;11.52;;;5.55;;
49910;SDS011;35803;53.096;5.844;2023-04-01T03:19:21;13.25;;;6.05;;
49910;SDS011;35803;53.096;5.844;2023-04-01T03:21:46;12.98;;;6.18;;
49910;SDS011;35803;53.096;5.844;2023-04-01T03:24:12;11.98;;;5.93;;
49910;SDS011;35803;53.096;5.844;2023-04-01T03:26:37;12.07;;;6.53;;
49910;SDS011;35803;53.096;5.844;2023-04-01T03:29:03;12.63;;;5.88;;
49910;SDS011;35803;53.096;5.844;2023-04-01T03:31:28;9.80;;;5.50;;
49910;SDS011;35803;53.096;5.844;2023-04-01T03:33:54;10.82;;;5.75;;
49910;SDS011;35803;53.096;5.844;2023-04-01T03:36:19;13.05;;;6.30;;
49910;SDS011;35803;53.096;5.844;2023-04-01T03:38:45;11.43;;;6.53;;
49910;SDS011;35803;53.096;5.844;2023-04-01T03:41:12;12.18;;;5.70;;
49910;SDS011;35803;53.096;5.844;2023-04-01T03:43:38;12.43;;;6.45;;
49910;SDS011;35803;53.096;5.844;2023-04-01T03:46:04;11.23;;;5.97;;
49910;SDS011;35803;53.096;5.844;2023-04-01T03:48:29;13.02;;;6.20;;
49910;SDS011;35803;53.096;5.844;2023-04-01T03:50:55;13.38;;;5.90;;
49910;SDS011;35803;53.096;5.844;2023-04-01T03:53:21;12.70;;;6.57;;
49910;SDS011;35803;53.096;5.844;2023-04-01T03:55:46;11.27;;;6.35;;
49910;SDS011;35803;53.096;5.844;2023-04-01T03:58:12;12.77;;;6.45;;
49910;SDS011;35803;53.096;5.844;2023-04-01T04:00:38;13.43;;;7.05;;
49910;SDS011;35803;53.096;5.844;2023-04-01T04:03:03;14.85;;;6.78;;
49910;SDS011;35803;53.096;5.844;2023-04-01T04:05:30;15.10;;;7.25;;
49910;SDS011;35803;53.096;5.844;2023-04-01T04:07:56;14.18;;;7.32;;
49910;SDS011;35803;53.096;5.844;2023-04-01T04:10:21;14.20;;;6.57;;
49910;SDS011;35803;53.096;5.844;2023-04-01T04:12:49;14.85;;;7.38;;
49910;SDS011;35803;53.096;5.844;2023-04-01T04:15:15;12.55;;;6.57;;
49910;SDS011;35803;53.096;5.844;2023-04-01T04:17:40;13.20;;;6.72;;
49910;SDS011;35803;53.096;5.844;2023-04-01T04:20:06;13.52;;;7.03;;
49910;SDS011;35803;53.096;5.844;2023-04-01T04:22:33;13.32;;;7.20;;
49910;SDS011;35803;53.096;5.844;2023-04-01T04:24:58;14.82;;;7.43;;
49910;SDS011;35803;53.096;5.844;2023-04-01T04:27:24;13.25;;;7.50;;
49910;SDS011;35803;53.096;5.844;2023-04-01T04:29:50;16.30;;;7.03;;
49910;SDS011;35803;53.096;5.844;2023-04-01T04:32:15;13.25;;;6.32;;
49910;SDS011;35803;53.096;5.844;2023-04-01T04:34:41;13.80;;;6.65;;
49910;SDS011;35803;53.096;5.844;2023-04-01T04:37:06;15.25;;;7.07;;
49910;SDS011;35803;53.096;5.844;2023-04-01T04:39:32;14.02;;;6.95;;
49910;SDS011;35803;53.096;5.844;2023-04-01T04:41:58;16.48;;;7.97;;
49910;SDS011;35803;53.096;5.844;2023-04-01T04:44:23;14.48;;;7.38;;
49910;SDS011;35803;53.096;5.844;2023-04-01T04:46:49;14.95;;;7.15;;
49910;SDS011;35803;53.096;5.844;2023-04-01T04:49:14;13.85;;;7.10;;
49910;SDS011;35803;53.096;5.844;2023-04-01T04:51:40;15.20;;;6.95;;
49910;SDS011;35803;53.096;5.844;2023-04-01T04:54:06;15.60;;;7.90;;
49910;SDS011;35803;53.096;5.844;2023-04-01T04:56:31;12.68;;;7.13;;
49910;SDS011;35803;53.096;5.844;2023-04-01T04:58:57;14.20;;;6.28;;
49910;SDS011;35803;53.096;5.844;2023-04-01T05:01:23;14.57;;;7.03;;
49910;SDS011;35803;53.096;5.844;2023-04-01T05:03:48;14.43;;;7.50;;
49910;SDS011;35803;53.096;5.844;2023-04-01T05:06:15;15.07;;;6.93;;
49910;SDS011;35803;53.096;5.844;2023-04-01T05:08:41;16.23;;;7.38;;
49910;SDS011;35803;53.096;5.844;2023-04-01T05:11:12;16.15;;;7.72;;
49910;SDS011;35803;53.096;5.844;2023-04-01T05:13:40;13.30;;;6.95;;
49910;SDS011;35803;53.096;5.844;2023-04-01T05:16:18;14.15;;;7.18;;
49910;SDS011;35803;53.096;5.844;2023-04-01T05:18:44;16.00;;;7.18;;
49910;SDS011;35803;53.096;5.844;2023-04-01T05:21:10;17.33;;;8.10;;
49910;SDS011;35803;53.096;5.844;2023-04-01T05:23:37;16.98;;;7.63;;
49910;SDS011;35803;53.096;5.844;2023-04-01T05:26:06;15.50;;;7.65;;
49910;SDS011;35803;53.096;5.844;2023-04-01T05:28:35;16.35;;;8.40;;
49910;SDS011;35803;53.096;5.844;2023-04-01T05:31:02;18.02;;;8.32;;
49910;SDS011;35803;53.096;5.844;2023-04-01T05:33:28;19.55;;;7.78;;
49910;SDS011;35803;53.096;5.844;2023-04-01T05:35:54;18.33;;;8.38;;
49910;SDS011;35803;53.096;5.844;2023-04-01T05:38:20;17.38;;;8.73;;
49910;SDS011;35803;53.096;5.844;2023-04-01T05:40:46;18.88;;;8.57;;
49910;SDS011;35803;53.096;5.844;2023-04-01T05:43:11;20.88;;;8.77;;
49910;SDS011;35803;53.096;5.844;2023-04-01T05:45:37;17.23;;;8.68;;
49910;SDS011;35803;53.096;5.844;2023-04-01T05:48:02;18.65;;;8.32;;
49910;SDS011;35803;53.096;5.844;2023-04-01T05:50:28;18.70;;;8.88;;
49910;SDS011;35803;53.096;5.844;2023-04-01T05:52:54;20.05;;;8.95;;
49910;SDS011;35803;53.096;5.844;2023-04-01T05:55:20;19.10;;;8.73;;
49910;SDS011;35803;53.096;5.844;2023-04-01T05:57:46;18.80;;;9.15;;
49910;SDS011;35803;53.096;5.844;2023-04-01T06:00:13;19.88;;;9.23;;
49910;SDS011;35803;53.096;5.844;2023-04-01T06:02:40;22.92;;;10.15;;
49910;SDS011;35803;53.096;5.844;2023-04-01T06:05:15;18.27;;;8.95;;
49910;SDS011;35803;53.096;5.844;2023-04-01T06:07:43;20.75;;;9.13;;
49910;SDS011;35803;53.096;5.844;2023-04-01T06:10:12;16.98;;;7.75;;
49910;SDS011;35803;53.096;5.844;2023-04-01T06:12:45;19.23;;;8.70;;
49910;SDS011;35803;53.096;5.844;2023-04-01T06:26:15;19.48;;;9.10;;
49910;SDS011;35803;53.096;5.844;2023-04-01T06:31:55;23.05;;;9.45;;
49910;SDS011;35803;53.096;5.844;2023-04-01T06:45:52;21.75;;;8.85;;
49910;SDS011;35803;53.096;5.844;2023-04-01T06:51:19;19.25;;;8.60;;
49910;SDS011;35803;53.096;5.844;2023-04-01T06:56:30;18.98;;;8.85;;
49910;SDS011;35803;53.096;5.844;2023-04-01T06:59:09;17.75;;;8.32;;
49910;SDS011;35803;53.096;5.844;2023-04-01T07:04:31;18.30;;;8.50;;
49910;SDS011;35803;53.096;5.844;2023-04-01T07:07:04;17.45;;;8.38;;
49910;SDS011;35803;53.096;5.844;2023-04-01T07:09:43;18.83;;;9.00;;
49910;SDS011;35803;53.096;5.844;2023-04-01T07:15:01;17.85;;;8.02;;
49910;SDS011;35803;53.096;5.844;2023-04-01T07:17:31;16.90;;;7.78;;
49910;SDS011;35803;53.096;5.844;2023-04-01T07:20:02;17.20;;;8.07;;
49910;SDS011;35803;53.096;5.844;2023-04-01T07:22:31;17.60;;;8.18;;
49910;SDS011;35803;53.096;5.844;2023-04-01T07:25:03;16.67;;;8.40;;
49910;SDS011;35803;53.096;5.844;2023-04-01T07:27:33;18.13;;;8.20;;
49910;SDS011;35803;53.096;5.844;2023-04-01T07:29:58;17.58;;;7.72;;
49910;SDS011;35803;53.096;5.844;2023-04-01T07:34:55;17.88;;;6.90;;
49910;SDS011;35803;53.096;5.844;2023-04-01T07:40:18;14.63;;;6.38;;
49910;SDS011;35803;53.096;5.844;2023-04-01T07:45:46;15.68;;;7.45;;
49910;SDS011;35803;53.096;5.844;2023-04-01T07:53:36;18.23;;;7.47;;
49910;SDS011;35803;53.096;5.844;2023-04-01T07:56:12;19.42;;;8.65;;
49910;SDS011;35803;53.096;5.844;2023-04-01T07:58:49;15.38;;;7.32;;
49910;SDS011;35803;53.096;5.844;2023-04-01T08:07:12;21.03;;;9.10;;
49910;SDS011;35803;53.096;5.844;2023-04-01T08:09:53;17.70;;;8.75;;
49910;SDS011;35803;53.096;5.844;2023-04-01T08:21:09;21.08;;;9.15;;
49910;SDS011;35803;53.096;5.844;2023-04-01T08:23:13;20.02;;;8.60;;
49910;SDS011;35803;53.096;5.844;2023-04-01T08:25:45;21.63;;;9.60;;
49910;SDS011;35803;53.096;5.844;2023-04-01T08:34:08;21.58;;;9.52;;
49910;SDS011;35803;53.096;5.844;2023-04-01T08:36:42;22.42;;;9.55;;
49910;SDS011;35803;53.096;5.844;2023-04-01T08:39:18;22.95;;;10.38;;
49910;SDS011;35803;53.096;5.844;2023-04-01T08:47:18;25.80;;;10.77;;
49910;SDS011;35803;53.096;5.844;2023-04-01T08:49:54;22.08;;;9.25;;
49910;SDS011;35803;53.096;5.844;2023-04-01T08:52:46;21.25;;;9.15;;
49910;SDS011;35803;53.096;5.844;2023-04-01T09:11:25;14.70;;;6.93;;
49910;SDS011;35803;53.096;5.844;2023-04-01T09:27:57;13.10;;;6.10;;
49910;SDS011;35803;53.096;5.844;2023-04-01T09:30:31;14.95;;;6.35;;
49910;SDS011;35803;53.096;5.844;2023-04-01T09:33:08;13.18;;;6.03;;
49910;SDS011;35803;53.096;5.844;2023-04-01T09:35:49;12.57;;;5.88;;
49910;SDS011;35803;53.096;5.844;2023-04-01T09:38:22;13.10;;;6.20;;
49910;SDS011;35803;53.096;5.844;2023-04-01T09:49:43;8.52;;;4.78;;
49910;SDS011;35803;53.096;5.844;2023-04-01T09:58:13;9.20;;;5.10;;
49910;SDS011;35803;53.096;5.844;2023-04-01T10:26:32;8.70;;;4.72;;
49910;SDS011;35803;53.096;5.844;2023-04-01T10:32:13;7.43;;;5.20;;
49910;SDS011;35803;53.096;5.844;2023-04-01T10:41:01;7.63;;;5.10;;
49910;SDS011;35803;53.096;5.844;2023-04-01T11:21:08;7.65;;;4.38;;
49910;SDS011;35803;53.096;5.844;2023-04-01T11:31:57;4.85;;;3.60;;
49910;SDS011;35803;53.096;5.844;2023-04-01T11:34:32;5.03;;;3.85;;
49910;SDS011;35803;53.096;5.844;2023-04-01T11:40:25;4.93;;;3.80;;
49910;SDS011;35803;53.096;5.844;2023-04-01T11:43:00;5.50;;;3.40;;
49910;SDS011;35803;53.096;5.844;2023-04-01T11:51:33;3.50;;;2.65;;
49910;SDS011;35803;53.096;5.844;2023-04-01T11:54:48;5.75;;;3.40;;
49910;SDS011;35803;53.096;5.844;2023-04-01T12:30:29;3.80;;;2.70;;
49910;SDS011;35803;53.096;5.844;2023-04-01T12:41:35;4.35;;;3.03;;
49910;SDS011;35803;53.096;5.844;2023-04-01T12:58:05;3.65;;;2.70;;
49910;SDS011;35803;53.096;5.844;2023-04-01T13:09:48;2.78;;;2.25;;
49910;SDS011;35803;53.096;5.844;2023-04-01T13:43:47;2.80;;;2.60;;
49910;SDS011;35803;53.096;5.844;2023-04-01T14:00:03;3.15;;;2.20;;
49910;SDS011;35803;53.096;5.844;2023-04-01T14:02:55;2.38;;;2.10;;
49910;SDS011;35803;53.096;5.844;2023-04-01T14:11:21;2.00;;;1.80;;
49910;SDS011;35803;53.096;5.844;2023-04-01T14:14:08;2.35;;;2.00;;
49910;SDS011;35803;53.096;5.844;2023-04-01T14:24:42;2.75;;;2.17;;
49910;SDS011;35803;53.096;5.844;2023-04-01T14:32:52;2.50;;;2.30;;
49910;SDS011;35803;53.096;5.844;2023-04-01T14:52:22;2.17;;;1.63;;
49910;SDS011;35803;53.096;5.844;2023-04-01T14:54:52;3.08;;;1.70;;
49910;SDS011;35803;53.096;5.844;2023-04-01T14:59:55;1.65;;;1.55;;
49910;SDS011;35803;53.096;5.844;2023-04-01T15:05:21;2.58;;;1.60;;
49910;SDS011;35803;53.096;5.844;2023-04-01T15:10:46;1.85;;;1.65;;
49910;SDS011;35803;53.096;5.844;2023-04-01T15:16:34;1.85;;;1.48;;
49910;SDS011;35803;53.096;5.844;2023-04-01T15:27:13;4.00;;;1.88;;
49910;SDS011;35803;53.096;5.844;2023-04-01T15:35:15;3.05;;;2.00;;
49910;SDS011;35803;53.096;5.844;2023-04-01T15:43:42;1.98;;;1.80;;
49910;SDS011;35803;53.096;5.844;2023-04-01T16:25:39;4.70;;;2.83;;
49910;SDS011;35803;53.096;5.844;2023-04-01T16:34:16;5.65;;;3.72;;
49910;SDS011;35803;53.096;5.844;2023-04-01T16:37:03;8.25;;;3.58;;
49910;SDS011;35803;53.096;5.844;2023-04-01T16:39:34;5.88;;;3.60;;
49910;SDS011;35803;53.096;5.844;2023-04-01T16:44:31;5.85;;;3.45;;
49910;SDS011;35803;53.096;5.844;2023-04-01T16:47:12;6.00;;;3.80;;
49910;SDS011;35803;53.096;5.844;2023-04-01T16:49:47;6.32;;;3.60;;
49910;SDS011;35803;53.096;5.844;2023-04-01T16:52:29;6.10;;;3.70;;
49910;SDS011;35803;53.096;5.844;2023-04-01T16:54:56;7.95;;;3.65;;
49910;SDS011;35803;53.096;5.844;2023-04-01T17:03:16;6.80;;;3.78;;
49910;SDS011;35803;53.096;5.844;2023-04-01T17:05:49;7.68;;;3.85;;
49910;SDS011;35803;53.096;5.844;2023-04-01T17:08:28;6.63;;;3.65;;
49910;SDS011;35803;53.096;5.844;2023-04-01T17:10:57;4.90;;;3.47;;
49910;SDS011;35803;53.096;5.844;2023-04-01T17:13:29;5.93;;;3.83;;
49910;SDS011;35803;53.096;5.844;2023-04-01T17:21:28;5.97;;;3.67;;
49910;SDS011;35803;53.096;5.844;2023-04-01T17:24:12;8.75;;;4.45;;
49910;SDS011;35803;53.096;5.844;2023-04-01T17:34:57;6.75;;;4.13;;
49910;SDS011;35803;53.096;5.844;2023-04-01T17:40:35;6.65;;;4.40;;
49910;SDS011;35803;53.096;5.844;2023-04-01T17:51:20;8.10;;;4.25;;
49910;SDS011;35803;53.096;5.844;2023-04-01T17:59:39;7.22;;;4.00;;
49910;SDS011;35803;53.096;5.844;2023-04-01T18:02:24;7.18;;;4.28;;
49910;SDS011;35803;53.096;5.844;2023-04-01T18:08:12;6.20;;;4.05;;
49910;SDS011;35803;53.096;5.844;2023-04-01T18:13:41;5.82;;;4.28;;
49910;SDS011;35803;53.096;5.844;2023-04-01T18:27:03;8.30;;;4.15;;
49910;SDS011;35803;53.096;5.844;2023-04-01T18:37:50;7.75;;;4.22;;
49910;SDS011;35803;53.096;5.844;2023-04-01T18:40:27;6.50;;;3.85;;
49910;SDS011;35803;53.096;5.844;2023-04-01T18:45:50;9.50;;;4.18;;
49910;SDS011;35803;53.096;5.844;2023-04-01T18:54:11;8.60;;;4.07;;
49910;SDS011;35803;53.096;5.844;2023-04-01T18:56:41;9.55;;;4.68;;
49910;SDS011;35803;53.096;5.844;2023-04-01T19:06:57;8.02;;;4.30;;
49910;SDS011;35803;53.096;5.844;2023-04-01T19:09:44;9.50;;;4.13;;
49910;SDS011;35803;53.096;5.844;2023-04-01T19:12:33;12.05;;;4.38;;
49910;SDS011;35803;53.096;5.844;2023-04-01T19:20:42;7.93;;;4.20;;
49910;SDS011;35803;53.096;5.844;2023-04-01T19:26:00;8.02;;;4.43;;
49910;SDS011;35803;53.096;5.844;2023-04-01T19:28:50;8.23;;;4.72;;
49910;SDS011;35803;53.096;5.844;2023-04-01T19:37:43;8.88;;;4.70;;
49910;SDS011;35803;53.096;5.844;2023-04-01T19:57:05;7.05;;;3.67;;
49910;SDS011;35803;53.096;5.844;2023-04-01T20:04:41;5.22;;;3.97;;
49910;SDS011;35803;53.096;5.844;2023-04-01T20:12:49;6.47;;;4.20;;
49910;SDS011;35803;53.096;5.844;2023-04-01T20:15:21;8.45;;;4.15;;
49910;SDS011;35803;53.096;5.844;2023-04-01T20:17:51;6.43;;;3.95;;
49910;SDS011;35803;53.096;5.844;2023-04-01T20:20:20;11.63;;;4.85;;
49910;SDS011;35803;53.096;5.844;2023-04-01T20:23:01;7.40;;;4.15;;
49910;SDS011;35803;53.096;5.844;2023-04-01T20:25:31;6.93;;;4.50;;
49910;SDS011;35803;53.096;5.844;2023-04-01T20:39:11;10.48;;;4.70;;
49910;SDS011;35803;53.096;5.844;2023-04-01T21:07:22;9.23;;;5.22;;
49910;SDS011;35803;53.096;5.844;2023-04-01T21:09:55;7.57;;;4.38;;
49910;SDS011;35803;53.096;5.844;2023-04-01T21:26:22;6.50;;;3.00;;
49910;SDS011;35803;53.096;5.844;2023-04-01T21:28:53;6.22;;;3.40;;
49910;SDS011;35803;53.096;5.844;2023-04-01T21:31:44;6.55;;;4.15;;
49910;SDS011;35803;53.096;5.844;2023-04-01T21:42:32;11.00;;;4.60;;
49910;SDS011;35803;53.096;5.844;2023-04-01T21:45:39;7.18;;;4.20;;
49910;SDS011;35803;53.096;5.844;2023-04-01T22:07:25;8.05;;;3.83;;
49910;SDS011;35803;53.096;5.844;2023-04-01T22:15:26;7.50;;;4.30;;
49910;SDS011;35803;53.096;5.844;2023-04-01T22:21:08;9.30;;;4.18;;
49910;SDS011;35803;53.096;5.844;2023-04-01T22:26:31;6.93;;;4.13;;
49910;SDS011;35803;53.096;5.844;2023-04-01T22:39:36;7.22;;;3.30;;
49910;SDS011;35803;53.096;5.844;2023-04-01T22:47:24;7.32;;;3.97;;
49910;SDS011;35803;53.096;5.844;2023-04-01T22:52:31;5.78;;;3.95;;
49910;SDS011;35803;53.096;5.844;2023-04-01T22:55:00;5.85;;;3.70;;
49910;SDS011;35803;53.096;5.844;2023-04-01T23:05:39;5.43;;;3.25;;
49910;SDS011;35803;53.096;5.844;2023-04-01T23:14:03;7.60;;;3.42;;
49910;SDS011;35803;53.096;5.844;2023-04-01T23:17:16;3.10;;;2.55;;
49910;SDS011;35803;53.096;5.844;2023-04-01T23:33:58;4.45;;;2.65;;
49910;SDS011;35803;53.096;5.844;2023-04-01T23:36:41;6.32;;;3.03;;
49910;SDS011;35803;53.096;5.844;2023-04-01T23:42:02;5.18;;;2.60;;
49910;SDS011;35803;53.096;5.844;2023-04-01T23:44:33;5.65;;;3.05;;
49910;SDS011;35803;53.096;5.844;2023-04-01T23:46:59;3.97;;;3.00;;
49910;SDS011;35803;53.096;5.844;2023-04-01T23:49:45;6.13;;;2.97;;
49910;SDS011;35803;53.096;5.844;2023-04-01T23:52:17;5.45;;;3.05;;
49910;SDS011;35803;53.096;5.844;2023-04-01T23:54:52;3.67;;;2.58;;
49910;SDS011;35803;53.096;5.844;2023-04-01T23:57:29;5.05;;;3.15;;
